createdAt,value
2023-04-02T00:00:19.148Z,101587.91
2023-04-02T00:01:27.854Z,101580.00
2023-04-02T00:02:32.446Z,101586.38
2023-04-02T00:03:43.337Z,101581.00
2023-04-02T00:04:47.477Z,101580.81
2023-04-02T00:05:51.644Z,101578.59
2023-04-02T00:07:39.194Z,101577.91
2023-04-02T00:08:42.818Z,101577.22
2023-04-02T00:09:47.287Z,101577.22
2023-04-02T00:10:55.681Z,101572.16
2023-04-02T00:12:01.370Z,101575.84
2023-04-02T00:13:12.652Z,101580.75
2023-04-02T00:14:34.445Z,101576.22
2023-04-02T00:15:44.902Z,101571.13
2023-04-02T00:16:48.555Z,101579.38
2023-04-02T00:17:52.543Z,101572.44
2023-04-02T00:18:57.259Z,101574.47
2023-04-02T00:20:07.437Z,101571.06
2023-04-02T00:21:27.685Z,101574.06
2023-04-02T00:22:34.857Z,101565.44
2023-04-02T00:23:41.277Z,101576.34
2023-04-02T00:24:45.298Z,101573.66
2023-04-02T00:25:48.981Z,101564.59
2023-04-02T00:26:53.761Z,101571.69
2023-04-02T00:27:57.410Z,101566.63
2023-04-02T00:29:02.162Z,101564.91
2023-04-02T00:30:07.064Z,101562.38
2023-04-02T00:31:11.594Z,101566.75
2023-04-02T00:32:19.885Z,101561.22
2023-04-02T00:33:25.281Z,101561.53
2023-04-02T00:34:34.730Z,101572.28
2023-04-02T00:35:38.351Z,101558.13
2023-04-02T00:36:42.586Z,101562.50
2023-04-02T00:37:46.162Z,101561.66
2023-04-02T00:38:50.165Z,101559.16
2023-04-02T00:40:02.638Z,101555.75
2023-04-02T00:41:07.894Z,101557.75
2023-04-02T00:42:13.281Z,101558.06
2023-04-02T00:43:21.586Z,101559.38
2023-04-02T00:44:25.242Z,101557.69
2023-04-02T00:45:33.994Z,101558.06
2023-04-02T00:46:50.221Z,101552.81
2023-04-02T00:47:53.973Z,101552.28
2023-04-02T00:49:12.039Z,101557.22
2023-04-02T00:50:16.222Z,101554.97
2023-04-02T00:51:23.010Z,101561.38
2023-04-02T00:52:28.793Z,101556.28
2023-04-02T00:53:32.316Z,101554.88
2023-04-02T00:54:42.339Z,101557.44
2023-04-02T00:55:46.075Z,101560.97
2023-04-02T00:56:51.708Z,101555.22
2023-04-02T00:57:56.220Z,101553.50
2023-04-02T00:59:00.321Z,101557.91
2023-04-02T01:00:20.740Z,101558.75
2023-04-02T01:01:37.147Z,101556.91
2023-04-02T01:02:42.144Z,101550.97
2023-04-02T01:04:00.047Z,101552.13
2023-04-02T01:05:21.409Z,101552.84
2023-04-02T01:06:36.319Z,101549.13
2023-04-02T01:07:58.182Z,101551.81
2023-04-02T01:09:08.498Z,101545.56
2023-04-02T01:10:28.127Z,101557.19
2023-04-02T01:11:31.961Z,101543.06
2023-04-02T01:12:46.264Z,101546.88
2023-04-02T01:14:26.854Z,101545.34
2023-04-02T01:15:34.366Z,101546.50
2023-04-02T01:17:01.600Z,101543.09
2023-04-02T01:18:47.001Z,101542.41
2023-04-02T01:20:12.149Z,101543.69
2023-04-02T01:21:53.501Z,101548.22
2023-04-02T01:23:09.235Z,101545.16
2023-04-02T01:24:15.615Z,101541.75
2023-04-02T01:25:26.320Z,101542.06
2023-04-02T01:26:38.257Z,101542.66
2023-04-02T01:28:00.228Z,101535.88
2023-04-02T01:29:12.512Z,101544.13
2023-04-02T01:30:17.179Z,101544.97
2023-04-02T01:31:21.454Z,101548.78
2023-04-02T01:32:26.620Z,101534.34
2023-04-02T01:33:33.337Z,101529.81
2023-04-02T01:34:37.137Z,101528.81
2023-04-02T01:35:41.762Z,101532.19
2023-04-02T01:37:24.725Z,101539.97
2023-04-02T01:38:30.619Z,101534.75
2023-04-02T01:39:35.025Z,101533.19
2023-04-02T01:41:45.833Z,101535.19
2023-04-02T01:43:16.267Z,101540.00
2023-04-02T01:44:50.726Z,101530.41
2023-04-02T01:45:54.323Z,101528.00
2023-04-02T01:47:01.720Z,101525.47
2023-04-02T01:48:31.768Z,101531.41
2023-04-02T01:49:36.168Z,101517.25
2023-04-02T01:50:40.024Z,101528.00
2023-04-02T01:51:45.227Z,101518.94
2023-04-02T01:52:51.646Z,101521.25
2023-04-02T01:53:55.693Z,101522.94
2023-04-02T01:54:59.257Z,101518.88
2023-04-02T01:56:03.680Z,101524.06
2023-04-02T01:57:08.889Z,101522.53
2023-04-02T01:58:13.488Z,101519.53
2023-04-02T01:59:20.841Z,101513.16
2023-04-02T02:00:26.230Z,101517.88
2023-04-02T02:01:39.657Z,101512.50
2023-04-02T02:02:43.848Z,101517.31
2023-04-02T02:03:48.000Z,101517.88
2023-04-02T02:04:52.135Z,101521.69
2023-04-02T02:05:56.202Z,101519.84
2023-04-02T02:07:01.402Z,101521.84
2023-04-02T02:08:06.150Z,101523.66
2023-04-02T02:09:11.047Z,101523.84
2023-04-02T02:10:16.645Z,101525.81
2023-04-02T02:11:22.224Z,101524.13
2023-04-02T02:12:26.328Z,101518.75
2023-04-02T02:13:30.472Z,101530.66
2023-04-02T02:14:34.326Z,101519.06
2023-04-02T02:15:38.589Z,101520.03
2023-04-02T02:16:45.412Z,101512.44
2023-04-02T02:17:49.724Z,101514.28
2023-04-02T02:19:01.965Z,101519.66
2023-04-02T02:20:11.913Z,101512.56
2023-04-02T02:21:19.489Z,101517.94
2023-04-02T02:22:33.788Z,101509.75
2023-04-02T02:23:37.383Z,101512.44
2023-04-02T02:24:41.682Z,101505.22
2023-04-02T02:25:45.913Z,101513.28
2023-04-02T02:26:51.190Z,101515.13
2023-04-02T02:28:01.509Z,101510.88
2023-04-02T02:29:04.786Z,101512.72
2023-04-02T02:30:37.655Z,101511.72
2023-04-02T02:31:42.539Z,101505.50
2023-04-02T02:33:02.545Z,101512.56
2023-04-02T02:34:10.032Z,101516.25
2023-04-02T02:35:31.842Z,101513.56
2023-04-02T02:36:51.319Z,101506.47
2023-04-02T02:38:27.286Z,101510.63
2023-04-02T02:39:42.182Z,101501.72
2023-04-02T02:40:46.072Z,101504.56
2023-04-02T02:42:01.367Z,101505.53
2023-04-02T02:43:06.468Z,101508.38
2023-04-02T02:44:10.296Z,101508.38
2023-04-02T02:45:19.120Z,101502.47
2023-04-02T02:46:23.577Z,101509.66
2023-04-02T02:47:30.571Z,101507.97
2023-04-02T02:48:38.758Z,101509.97
2023-04-02T02:49:58.267Z,101506.72
2023-04-02T02:51:05.483Z,101512.94
2023-04-02T02:52:11.947Z,101511.25
2023-04-02T02:53:25.760Z,101509.56
2023-04-02T02:54:32.208Z,101511.41
2023-04-02T02:55:38.098Z,101509.56
2023-04-02T02:57:01.780Z,101505.19
2023-04-02T02:58:11.779Z,101505.88
2023-04-02T02:59:27.645Z,101511.25
2023-04-02T03:00:32.031Z,101510.56
2023-04-02T03:01:37.937Z,101506.19
2023-04-02T03:02:42.243Z,101513.25
2023-04-02T03:03:47.983Z,101505.31
2023-04-02T03:04:53.757Z,101502.78
2023-04-02T03:06:06.064Z,101503.34
2023-04-02T03:07:10.452Z,101500.81
2023-04-02T03:08:22.439Z,101499.09
2023-04-02T03:09:52.131Z,101497.41
2023-04-02T03:11:02.161Z,101500.09
2023-04-02T03:12:26.030Z,101498.38
2023-04-02T03:13:35.981Z,101507.59
2023-04-02T03:14:46.327Z,101496.88
2023-04-02T03:16:14.010Z,101509.75
2023-04-02T03:17:24.673Z,101507.47
2023-04-02T03:18:31.157Z,101502.81
2023-04-02T03:19:39.893Z,101503.94
2023-04-02T03:20:53.395Z,101511.31
2023-04-02T03:22:06.654Z,101516.97
2023-04-02T03:23:21.962Z,101511.59
2023-04-02T03:24:59.825Z,101516.97
2023-04-02T03:26:29.083Z,101507.66
2023-04-02T03:27:36.190Z,101514.88
2023-04-02T03:28:42.591Z,101511.19
2023-04-02T03:30:17.629Z,101505.69
2023-04-02T03:31:52.698Z,101505.13
2023-04-02T03:33:02.919Z,101514.19
2023-04-02T03:34:18.982Z,101503.44
2023-04-02T03:35:44.496Z,101508.09
2023-04-02T03:37:00.922Z,101506.25
2023-04-02T03:38:14.525Z,101503.69
2023-04-02T03:39:24.601Z,101506.56
2023-04-02T03:40:32.579Z,101503.47
2023-04-02T03:42:01.044Z,101507.13
2023-04-02T03:43:26.512Z,101499.06
2023-04-02T03:44:40.671Z,101505.28
2023-04-02T03:45:47.343Z,101495.53
2023-04-02T03:46:58.016Z,101492.72
2023-04-02T03:48:26.489Z,101493.56
2023-04-02T03:49:55.049Z,101501.91
2023-04-02T03:51:06.459Z,101500.91
2023-04-02T03:52:13.066Z,101488.19
2023-04-02T03:53:17.637Z,101496.25
2023-04-02T03:54:22.389Z,101496.25
2023-04-02T03:55:29.826Z,101493.81
2023-04-02T03:56:40.824Z,101493.53
2023-04-02T03:58:01.691Z,101491.25
2023-04-02T03:59:43.810Z,101496.72
2023-04-02T04:01:09.665Z,101489.25
2023-04-02T04:02:44.495Z,101497.00
2023-04-02T04:03:58.467Z,101494.75
2023-04-02T04:05:02.944Z,101484.47
2023-04-02T04:06:11.254Z,101485.31
2023-04-02T04:07:23.418Z,101484.59
2023-04-02T04:08:43.381Z,101484.72
2023-04-02T04:09:47.473Z,101484.72
2023-04-02T04:10:54.866Z,101491.94
2023-04-02T04:12:37.010Z,101496.31
2023-04-02T04:14:04.756Z,101482.03
2023-04-02T04:15:31.298Z,101483.88
2023-04-02T04:16:42.035Z,101476.00
2023-04-02T04:18:02.731Z,101480.38
2023-04-02T04:19:24.125Z,101475.28
2023-04-02T04:20:35.807Z,101472.59
2023-04-02T04:21:39.576Z,101479.97
2023-04-02T04:22:51.075Z,101481.22
2023-04-02T04:24:04.630Z,101473.16
2023-04-02T04:25:41.097Z,101468.97
2023-04-02T04:26:54.774Z,101472.50
2023-04-02T04:28:19.906Z,101470.78
2023-04-02T04:29:52.947Z,101473.47
2023-04-02T04:31:19.043Z,101452.25
2023-04-02T04:32:28.227Z,101455.66
2023-04-02T04:33:40.741Z,101466.53
2023-04-02T04:34:52.640Z,101467.69
2023-04-02T04:36:01.084Z,101463.31
2023-04-02T04:37:26.471Z,101465.28
2023-04-02T04:38:40.494Z,101466.28
2023-04-02T04:39:57.347Z,101461.75
2023-04-02T04:41:06.843Z,101460.75
2023-04-02T04:42:17.452Z,101458.22
2023-04-02T04:43:53.609Z,101462.06
2023-04-02T04:45:09.995Z,101461.22
2023-04-02T04:46:25.176Z,101466.56
2023-04-02T04:47:37.963Z,101462.06
2023-04-02T04:48:54.694Z,101461.91
2023-04-02T04:50:05.539Z,101464.75
2023-04-02T04:51:24.426Z,101469.56
2023-04-02T04:52:48.867Z,101472.53
2023-04-02T04:53:54.630Z,101472.97
2023-04-02T04:55:02.562Z,101466.75
2023-04-02T04:56:18.923Z,101478.06
2023-04-02T04:57:38.253Z,101482.84
2023-04-02T04:59:06.885Z,101480.44
2023-04-02T05:00:21.718Z,101485.09
2023-04-02T05:01:30.441Z,101474.06
2023-04-02T05:02:41.130Z,101486.94
2023-04-02T05:04:21.605Z,101479.16
2023-04-02T05:05:30.229Z,101486.09
2023-04-02T05:06:41.078Z,101473.09
2023-04-02T05:07:47.970Z,101477.88
2023-04-02T05:08:53.128Z,101483.38
2023-04-02T05:10:07.616Z,101481.97
2023-04-02T05:11:25.253Z,101487.88
2023-04-02T05:12:43.607Z,101487.00
2023-04-02T05:13:53.614Z,101486.00
2023-04-02T05:15:15.949Z,101484.44
2023-04-02T05:16:38.279Z,101481.03
2023-04-02T05:18:12.888Z,101498.56
2023-04-02T05:19:36.670Z,101489.50
2023-04-02T05:20:59.112Z,101485.28
2023-04-02T05:22:19.009Z,101487.22
2023-04-02T05:23:31.764Z,101489.22
2023-04-02T05:24:54.433Z,101487.22
2023-04-02T05:26:03.734Z,101489.63
2023-04-02T05:27:37.952Z,101491.47
2023-04-02T05:28:53.524Z,101493.41
2023-04-02T05:30:20.244Z,101493.53
2023-04-02T05:31:49.613Z,101498.66
2023-04-02T05:33:15.962Z,101495.13
2023-04-02T05:34:24.596Z,101496.66
2023-04-02T05:35:33.335Z,101494.59
2023-04-02T05:36:37.693Z,101508.53
2023-04-02T05:37:41.846Z,101501.34
2023-04-02T05:38:47.014Z,101508.41
2023-04-02T05:40:00.824Z,101504.47
2023-04-02T05:41:06.130Z,101511.41
2023-04-02T05:42:13.241Z,101504.19
2023-04-02T05:43:27.179Z,101510.41
2023-04-02T05:44:36.337Z,101515.50
2023-04-02T05:45:42.236Z,101506.75
2023-04-02T05:46:57.788Z,101511.56
2023-04-02T05:48:06.728Z,101514.97
2023-04-02T05:49:28.756Z,101523.25
2023-04-02T05:50:38.324Z,101527.63
2023-04-02T05:51:47.233Z,101528.91
2023-04-02T05:53:04.974Z,101525.94
2023-04-02T05:54:13.571Z,101526.22
2023-04-02T05:55:26.350Z,101534.41
2023-04-02T05:56:41.799Z,101525.69
2023-04-02T05:58:13.510Z,101532.16
2023-04-02T05:59:29.647Z,101526.81
2023-04-02T06:00:43.513Z,101534.28
2023-04-02T06:02:01.007Z,101536.00
2023-04-02T06:03:24.725Z,101530.50
2023-04-02T06:04:49.448Z,101538.38
2023-04-02T06:05:54.687Z,101544.59
2023-04-02T06:07:07.088Z,101538.38
2023-04-02T06:08:21.705Z,101536.13
2023-04-02T06:09:31.272Z,101536.13
2023-04-02T06:11:33.750Z,101537.97
2023-04-02T06:13:09.569Z,101541.91
2023-04-02T06:14:17.528Z,101544.16
2023-04-02T06:15:23.903Z,101543.19
2023-04-02T06:16:34.008Z,101545.88
2023-04-02T06:18:02.845Z,101546.72
2023-04-02T06:19:09.611Z,101546.84
2023-04-02T06:20:17.142Z,101547.81
2023-04-02T06:21:23.352Z,101555.59
2023-04-02T06:22:40.015Z,101547.81
2023-04-02T06:23:54.712Z,101547.56
2023-04-02T06:25:07.568Z,101544.47
2023-04-02T06:26:35.202Z,101542.34
2023-04-02T06:27:40.729Z,101548.31
2023-04-02T06:28:52.376Z,101551.84
2023-04-02T06:30:05.881Z,101555.34
2023-04-02T06:31:40.593Z,101562.28
2023-04-02T06:32:46.530Z,101567.22
2023-04-02T06:33:53.448Z,101565.50
2023-04-02T06:34:58.931Z,101564.78
2023-04-02T06:36:02.599Z,101567.47
2023-04-02T06:37:21.107Z,101563.81
2023-04-02T06:38:30.131Z,101567.22
2023-04-02T06:39:34.742Z,101569.34
2023-04-02T06:46:32.408Z,101582.84
2023-04-02T06:47:43.651Z,101583.13
2023-04-02T06:48:59.490Z,101580.38
2023-04-02T06:50:17.752Z,101586.03
2023-04-02T06:51:22.233Z,101580.47
2023-04-02T06:52:38.802Z,101579.38
2023-04-02T06:53:50.558Z,101582.84
2023-04-02T06:54:56.037Z,101583.41
2023-04-02T06:56:23.476Z,101586.63
2023-04-02T06:57:27.762Z,101588.94
2023-04-02T06:58:32.156Z,101587.56
2023-04-02T06:59:36.928Z,101586.44
2023-04-02T07:00:47.040Z,101583.41
2023-04-02T07:02:00.491Z,101584.44
2023-04-02T07:03:28.884Z,101593.81
2023-04-02T07:04:35.257Z,101590.34
2023-04-02T07:05:42.440Z,101583.28
2023-04-02T07:06:47.274Z,101599.56
2023-04-02T07:07:52.868Z,101589.38
2023-04-02T07:08:56.866Z,101601.94
2023-04-02T07:10:01.448Z,101591.63
2023-04-02T07:11:06.427Z,101586.78
2023-04-02T07:12:16.526Z,101590.63
2023-04-02T07:13:23.142Z,101597.56
2023-04-02T07:14:27.425Z,101595.28
2023-04-02T07:15:31.472Z,101592.97
2023-04-02T07:16:37.356Z,101600.66
2023-04-02T07:17:42.096Z,101602.91
2023-04-02T07:18:46.174Z,101600.94
2023-04-02T07:19:50.191Z,101600.09
2023-04-02T07:20:56.592Z,101590.84
2023-04-02T07:22:01.633Z,101592.72
2023-04-02T07:23:11.711Z,101600.63
2023-04-02T07:24:15.852Z,101598.41
2023-04-02T07:25:19.502Z,101600.53
2023-04-02T07:26:26.100Z,101597.59
2023-04-02T07:27:29.647Z,101605.63
2023-04-02T07:28:33.266Z,101599.03
2023-04-02T07:29:38.173Z,101602.34
2023-04-02T07:30:42.430Z,101601.44
2023-04-02T07:31:46.228Z,101605.41
2023-04-02T07:32:50.613Z,101601.03
2023-04-02T07:33:56.389Z,101597.47
2023-04-02T07:35:00.452Z,101600.81
2023-04-02T07:36:04.516Z,101596.84
2023-04-02T07:37:08.896Z,101598.81
2023-04-02T07:38:12.533Z,101597.03
2023-04-02T07:39:16.328Z,101597.44
2023-04-02T07:40:22.897Z,101591.09
2023-04-02T07:41:26.994Z,101595.25
2023-04-02T07:42:31.260Z,101593.59
2023-04-02T07:43:36.605Z,101589.94
2023-04-02T07:44:40.643Z,101598.66
2023-04-02T07:45:44.309Z,101593.25
2023-04-02T07:46:48.396Z,101598.97
2023-04-02T07:47:52.153Z,101604.75
2023-04-02T07:48:56.394Z,101601.69
2023-04-02T07:50:00.555Z,101606.50
2023-04-02T07:51:04.292Z,101604.50
2023-04-02T07:52:08.421Z,101605.00
2023-04-02T07:53:35.586Z,101603.31
2023-04-02T07:54:40.931Z,101592.84
2023-04-02T07:55:44.994Z,101608.59
2023-04-02T07:56:49.124Z,101602.06
2023-04-02T07:57:54.837Z,101606.91
2023-04-02T07:58:58.840Z,101611.41
2023-04-02T08:00:02.913Z,101619.06
2023-04-02T08:01:28.197Z,101609.63
2023-04-02T08:02:32.067Z,101619.44
2023-04-02T08:03:36.702Z,101608.16
2023-04-02T08:04:40.749Z,101605.97
2023-04-02T08:05:44.847Z,101609.81
2023-04-02T08:06:49.119Z,101613.84
2023-04-02T08:07:56.558Z,101611.19
2023-04-02T08:09:00.240Z,101604.63
2023-04-02T08:10:05.141Z,101615.44
2023-04-02T08:11:09.363Z,101612.63
2023-04-02T08:12:16.466Z,101612.84
2023-04-02T08:13:20.195Z,101613.97
2023-04-02T08:14:23.840Z,101611.06
2023-04-02T08:15:27.688Z,101610.72
2023-04-02T08:16:48.696Z,101612.63
2023-04-02T08:17:52.460Z,101620.44
2023-04-02T08:18:56.574Z,101618.69
2023-04-02T08:20:03.235Z,101616.69
2023-04-02T08:21:08.584Z,101623.66
2023-04-02T08:22:12.491Z,101618.75
2023-04-02T08:23:18.512Z,101619.31
2023-04-02T08:24:22.882Z,101612.94
2023-04-02T08:25:26.763Z,101614.59
2023-04-02T08:26:31.083Z,101611.78
2023-04-02T08:27:34.743Z,101613.47
2023-04-02T08:28:39.003Z,101615.28
2023-04-02T08:29:43.001Z,101605.38
2023-04-02T08:30:47.056Z,101614.94
2023-04-02T08:31:51.193Z,101608.19
2023-04-02T08:32:55.318Z,101607.53
2023-04-02T08:33:59.884Z,101609.19
2023-04-02T08:35:03.552Z,101613.63
2023-04-02T08:36:07.388Z,101615.31
2023-04-02T08:37:14.573Z,101610.44
2023-04-02T08:38:19.721Z,101604.78
2023-04-02T08:39:24.093Z,101599.00
2023-04-02T08:40:39.427Z,101594.66
2023-04-02T08:41:51.772Z,101597.16
2023-04-02T08:43:10.700Z,101601.84
2023-04-02T08:45:10.935Z,101601.31
2023-04-02T08:46:32.185Z,101612.13
2023-04-02T08:47:37.877Z,101606.97
2023-04-02T08:48:42.747Z,101598.19
2023-04-02T08:49:50.078Z,101604.31
2023-04-02T08:50:53.811Z,101603.25
2023-04-02T08:51:57.572Z,101597.94
2023-04-02T08:53:02.764Z,101600.34
2023-04-02T08:54:39.009Z,101600.97
2023-04-02T08:56:06.487Z,101603.59
2023-04-02T08:57:46.974Z,101602.56
2023-04-02T08:58:51.330Z,101606.84
2023-04-02T09:00:19.297Z,101594.09
2023-04-02T09:01:40.246Z,101597.16
2023-04-02T09:02:49.665Z,101599.38
2023-04-02T09:05:18.476Z,101598.91
2023-04-02T09:06:22.332Z,101606.22
2023-04-02T09:07:27.755Z,101597.47
2023-04-02T09:08:32.080Z,101592.81
2023-04-02T09:09:37.641Z,101598.16
2023-04-02T09:11:05.969Z,101596.91
2023-04-02T09:12:20.883Z,101600.75
2023-04-02T09:13:28.408Z,101600.69
2023-04-02T09:14:57.552Z,101589.69
2023-04-02T09:16:12.000Z,101600.56
2023-04-02T09:17:25.542Z,101595.44
2023-04-02T09:18:29.773Z,101604.13
2023-04-02T09:19:41.466Z,101599.47
2023-04-02T09:20:45.613Z,101604.38
2023-04-02T09:22:10.036Z,101606.44
2023-04-02T09:23:19.826Z,101603.94
2023-04-02T09:24:23.919Z,101610.94
2023-04-02T09:25:29.904Z,101621.50
2023-04-02T09:26:34.500Z,101613.22
2023-04-02T09:27:38.498Z,101614.72
2023-04-02T09:28:42.398Z,101605.25
2023-04-02T09:29:47.807Z,101608.97
2023-04-02T09:31:07.488Z,101613.19
2023-04-02T09:32:30.163Z,101603.97
2023-04-02T09:33:43.290Z,101604.19
2023-04-02T09:34:46.914Z,101613.06
2023-04-02T09:35:50.890Z,101622.91
2023-04-02T09:36:54.929Z,101605.94
2023-04-02T09:38:24.339Z,101615.38
2023-04-02T09:39:30.353Z,101614.88
2023-04-02T09:40:36.736Z,101615.69
2023-04-02T09:41:40.820Z,101616.06
2023-04-02T09:42:44.453Z,101617.06
2023-04-02T09:43:48.174Z,101619.56
2023-04-02T09:44:52.143Z,101620.13
2023-04-02T09:45:57.924Z,101623.44
2023-04-02T09:47:06.232Z,101620.66
2023-04-02T09:48:25.267Z,101611.75
2023-04-02T09:49:36.891Z,101613.31
2023-04-02T09:50:41.240Z,101616.44
2023-04-02T09:51:44.946Z,101627.06
2023-04-02T09:52:49.302Z,101624.44
2023-04-02T09:54:04.743Z,101623.44
2023-04-02T09:55:26.468Z,101632.09
2023-04-02T09:56:34.894Z,101632.59
2023-04-02T09:57:45.220Z,101633.78
2023-04-02T09:59:05.107Z,101630.88
2023-04-02T10:00:29.853Z,101633.69
2023-04-02T10:01:42.282Z,101632.19
2023-04-02T10:03:00.337Z,101635.75
2023-04-02T10:04:05.510Z,101644.91
2023-04-02T10:05:39.382Z,101638.25
2023-04-02T10:06:49.935Z,101640.34
2023-04-02T10:07:54.997Z,101640.88
2023-04-02T10:08:58.749Z,101641.22
2023-04-02T10:10:05.039Z,101636.56
2023-04-02T10:11:22.017Z,101641.19
2023-04-02T10:12:25.569Z,101638.22
2023-04-02T10:13:30.219Z,101640.72
2023-04-02T10:14:44.510Z,101633.19
2023-04-02T10:16:27.233Z,101638.34
2023-04-02T10:17:32.570Z,101635.97
2023-04-02T10:18:45.534Z,101648.94
2023-04-02T10:19:53.789Z,101635.66
2023-04-02T10:20:57.928Z,101634.31
2023-04-02T10:22:04.171Z,101630.47
2023-04-02T10:23:10.749Z,101631.53
2023-04-02T10:24:18.188Z,101632.91
2023-04-02T10:25:22.853Z,101628.94
2023-04-02T10:26:41.943Z,101630.25
2023-04-02T10:27:48.052Z,101617.22
2023-04-02T10:29:07.092Z,101616.72
2023-04-02T10:30:17.946Z,101616.00
2023-04-02T10:31:30.352Z,101617.44
2023-04-02T10:32:46.146Z,101619.25
2023-04-02T10:33:56.667Z,101619.06
2023-04-02T10:35:04.629Z,101625.22
2023-04-02T10:36:22.302Z,101627.16
2023-04-02T10:37:41.152Z,101622.22
2023-04-02T10:38:52.261Z,101630.78
2023-04-02T10:40:10.547Z,101628.63
2023-04-02T10:41:33.965Z,101631.22
2023-04-02T10:43:02.236Z,101628.06
2023-04-02T10:44:17.177Z,101634.00
2023-04-02T10:45:43.503Z,101622.75
2023-04-02T10:47:19.626Z,101624.81
2023-04-02T10:48:47.277Z,101618.75
2023-04-02T10:50:09.587Z,101615.78
2023-04-02T10:51:43.292Z,101611.25
2023-04-02T10:52:48.057Z,101619.25
2023-04-02T10:54:04.725Z,101614.25
2023-04-02T10:55:19.730Z,101610.84
2023-04-02T10:56:23.875Z,101615.19
2023-04-02T10:57:43.076Z,101614.75
2023-04-02T10:59:02.275Z,101613.75
2023-04-02T11:00:38.910Z,101612.94
2023-04-02T11:01:42.827Z,101610.31
2023-04-02T11:03:01.853Z,101602.84
2023-04-02T11:04:16.931Z,101602.19
2023-04-02T11:05:34.229Z,101601.38
2023-04-02T11:06:45.408Z,101602.72
2023-04-02T11:08:24.686Z,101609.31
2023-04-02T11:09:30.753Z,101605.31
2023-04-02T11:10:37.010Z,101604.25
2023-04-02T11:11:42.983Z,101618.34
2023-04-02T11:12:56.750Z,101607.91
2023-04-02T11:14:15.743Z,101602.16
2023-04-02T11:15:19.983Z,101598.66
2023-04-02T11:16:24.325Z,101600.84
2023-04-02T11:17:28.416Z,101604.00
2023-04-02T11:18:37.715Z,101600.13
2023-04-02T11:19:41.678Z,101609.81
2023-04-02T11:21:02.384Z,101602.09
2023-04-02T11:22:19.060Z,101604.66
2023-04-02T11:23:23.027Z,101596.38
2023-04-02T11:24:33.503Z,101607.66
2023-04-02T11:25:37.765Z,101596.59
2023-04-02T11:26:47.260Z,101603.47
2023-04-02T11:27:51.341Z,101600.44
2023-04-02T11:29:22.595Z,101585.69
2023-04-02T11:30:28.102Z,101601.28
2023-04-02T11:31:31.884Z,101598.38
2023-04-02T11:32:38.425Z,101589.03
2023-04-02T11:33:45.405Z,101585.03
2023-04-02T11:34:59.785Z,101587.72
2023-04-02T11:36:46.476Z,101589.56
2023-04-02T11:37:50.322Z,101584.34
2023-04-02T11:38:59.457Z,101586.88
2023-04-02T11:40:17.216Z,101593.41
2023-04-02T11:42:06.165Z,101587.31
2023-04-02T11:43:34.185Z,101597.63
2023-04-02T11:44:38.237Z,101583.84
2023-04-02T11:45:52.990Z,101587.88
2023-04-02T11:47:16.919Z,101588.53
2023-04-02T11:48:23.438Z,101590.38
2023-04-02T11:49:58.620Z,101587.78
2023-04-02T11:51:05.729Z,101589.94
2023-04-02T11:52:48.722Z,101585.59
2023-04-02T11:53:54.441Z,101583.22
2023-04-02T11:55:00.554Z,101586.72
2023-04-02T11:56:26.551Z,101573.53
2023-04-02T11:58:04.750Z,101578.03
2023-04-02T11:59:23.199Z,101573.94
2023-04-02T12:00:42.798Z,101566.28
2023-04-02T12:02:10.317Z,101564.19
2023-04-02T12:03:47.592Z,101566.31
2023-04-02T12:05:09.893Z,101568.72
2023-04-02T12:06:29.135Z,101567.94
2023-04-02T12:07:47.645Z,101559.53
2023-04-02T12:09:27.612Z,101566.31
2023-04-02T12:10:51.806Z,101566.34
2023-04-02T12:12:01.518Z,101566.44
2023-04-02T12:13:06.778Z,101567.28
2023-04-02T12:15:50.934Z,101569.13
2023-04-02T12:16:55.017Z,101557.63
2023-04-02T12:18:12.444Z,101557.09
2023-04-02T12:19:16.538Z,101557.22
2023-04-02T12:20:25.341Z,101553.78
2023-04-02T12:21:29.650Z,101549.06
2023-04-02T12:22:33.512Z,101547.44
2023-04-02T12:23:38.084Z,101552.38
2023-04-02T12:24:42.137Z,101555.38
2023-04-02T12:25:47.070Z,101549.50
2023-04-02T12:26:51.142Z,101541.88
2023-04-02T12:28:18.662Z,101540.78
2023-04-02T12:29:29.808Z,101544.31
2023-04-02T12:30:34.575Z,101538.34
2023-04-02T12:31:38.356Z,101531.84
2023-04-02T12:32:42.102Z,101535.25
2023-04-02T12:33:45.709Z,101533.81
2023-04-02T12:34:49.321Z,101532.84
2023-04-02T12:35:56.125Z,101532.28
2023-04-02T12:37:03.332Z,101526.38
2023-04-02T12:38:07.311Z,101534.75
2023-04-02T12:39:18.072Z,101530.13
2023-04-02T12:40:22.108Z,101525.50
2023-04-02T12:41:31.964Z,101517.16
2023-04-02T12:42:36.233Z,101520.75
2023-04-02T12:43:40.689Z,101526.13
2023-04-02T12:44:50.327Z,101519.66
2023-04-02T12:45:56.050Z,101532.16
2023-04-02T12:46:59.794Z,101529.69
2023-04-02T12:48:05.622Z,101534.06
2023-04-02T12:49:24.412Z,101528.97
2023-04-02T12:50:28.021Z,101535.22
2023-04-02T12:51:32.188Z,101533.78
2023-04-02T12:52:36.878Z,101532.41
2023-04-02T12:53:41.761Z,101527.03
2023-04-02T12:54:52.540Z,101530.50
2023-04-02T12:55:56.197Z,101527.25
2023-04-02T12:57:28.290Z,101525.97
2023-04-02T12:58:45.639Z,101529.81
2023-04-02T12:59:49.290Z,101524.13
2023-04-02T13:00:52.886Z,101520.81
2023-04-02T13:02:01.399Z,101516.03
2023-04-02T13:03:07.983Z,101522.09
2023-04-02T13:04:15.677Z,101515.50
2023-04-02T13:05:37.906Z,101511.19
2023-04-02T13:06:43.156Z,101512.56
2023-04-02T13:07:47.877Z,101512.03
2023-04-02T13:08:52.264Z,101512.53
2023-04-02T13:09:57.853Z,101512.94
2023-04-02T13:11:02.874Z,101514.31
2023-04-02T13:12:08.144Z,101505.34
2023-04-02T13:13:27.703Z,101497.78
2023-04-02T13:14:31.268Z,101506.41
2023-04-02T13:15:37.711Z,101499.53
2023-04-02T13:16:41.464Z,101498.13
2023-04-02T13:17:49.423Z,101496.84
2023-04-02T13:18:53.217Z,101500.22
2023-04-02T13:19:57.204Z,101503.06
2023-04-02T13:21:03.526Z,101496.22
2023-04-02T13:22:32.916Z,101495.66
2023-04-02T13:23:38.050Z,101497.84
2023-04-02T13:24:42.703Z,101500.97
2023-04-02T13:25:46.664Z,101499.97
2023-04-02T13:26:51.470Z,101493.97
2023-04-02T13:27:55.369Z,101494.69
2023-04-02T13:29:02.918Z,101494.81
2023-04-02T13:30:16.585Z,101495.28
2023-04-02T13:31:20.144Z,101496.13
2023-04-02T13:32:24.278Z,101487.03
2023-04-02T13:33:28.474Z,101489.78
2023-04-02T13:34:32.602Z,101490.53
2023-04-02T13:35:36.673Z,101488.25
2023-04-02T13:36:40.883Z,101492.53
2023-04-02T13:37:45.186Z,101488.72
2023-04-02T13:38:48.847Z,101488.47
2023-04-02T13:39:52.463Z,101489.53
2023-04-02T13:40:56.474Z,101476.28
2023-04-02T13:42:03.760Z,101486.91
2023-04-02T13:43:08.452Z,101485.47
2023-04-02T13:44:48.851Z,101472.34
2023-04-02T13:45:53.114Z,101483.31
2023-04-02T13:46:57.812Z,101482.03
2023-04-02T13:48:02.841Z,101480.44
2023-04-02T13:49:06.986Z,101476.28